createdAt,value
2022-08-08T00:00:50.534Z,2.55
2022-08-08T00:02:33.043Z,2.42
2022-08-08T00:05:09.612Z,2.65
2022-08-08T00:07:52.491Z,2.15
2022-08-08T00:10:35.563Z,1.80
2022-08-08T00:13:10.523Z,2.00
2022-08-08T00:16:06.038Z,1.58
2022-08-08T00:21:05.955Z,2.33
2022-08-08T00:23:58.365Z,2.03
2022-08-08T00:26:35.651Z,2.10
2022-08-08T00:29:45.904Z,2.15
2022-08-08T00:32:56.121Z,2.28
2022-08-08T00:35:38.265Z,2.40
2022-08-08T00:38:31.542Z,2.03
2022-08-08T00:41:55.090Z,2.00
2022-08-08T00:44:19.235Z,2.00
2022-08-08T00:47:04.515Z,2.22
2022-08-08T00:50:09.341Z,2.40
2022-08-08T00:52:54.161Z,2.15
2022-08-08T00:55:54.027Z,2.10
2022-08-08T00:58:36.385Z,2.00
2022-08-08T01:01:37.532Z,2.08
2022-08-08T01:05:01.690Z,1.70
2022-08-08T01:07:54.930Z,3.05
2022-08-08T01:10:38.266Z,2.38
2022-08-08T01:13:14.939Z,2.30
2022-08-08T01:15:55.350Z,2.22
2022-08-08T01:19:02.780Z,2.30
2022-08-08T01:22:12.641Z,2.25
2022-08-08T01:24:57.914Z,1.70
2022-08-08T01:27:59.464Z,2.05
2022-08-08T01:30:46.671Z,2.37
2022-08-08T01:34:00.169Z,2.55
2022-08-08T01:36:50.882Z,2.38
2022-08-08T01:39:41.784Z,2.38
2022-08-08T01:42:35.923Z,2.35
2022-08-08T01:45:13.779Z,2.35
2022-08-08T01:48:16.830Z,2.28
2022-08-08T01:51:32.357Z,2.17
2022-08-08T01:55:26.311Z,2.45
2022-08-08T01:57:24.914Z,2.08
2022-08-08T02:00:17.861Z,2.20
2022-08-08T02:03:50.587Z,2.42
2022-08-08T02:06:10.583Z,1.73
2022-08-08T02:09:16.093Z,2.10
2022-08-08T02:11:59.458Z,1.95
2022-08-08T02:14:55.839Z,1.80
2022-08-08T02:17:43.686Z,2.00
2022-08-08T02:21:18.093Z,1.90
2022-08-08T02:24:22.851Z,2.13
2022-08-08T02:27:03.828Z,2.17
2022-08-08T02:29:59.417Z,2.22
2022-08-08T02:32:30.974Z,2.42
2022-08-08T02:36:04.490Z,2.40
2022-08-08T02:38:44.920Z,2.92
2022-08-08T02:42:03.584Z,2.65
2022-08-08T02:44:57.150Z,2.10
2022-08-08T02:47:39.886Z,3.00
2022-08-08T02:50:17.890Z,2.40
2022-08-08T02:53:42.235Z,2.53
2022-08-08T02:59:05.884Z,2.45
2022-08-08T03:02:39.042Z,2.13
2022-08-08T03:05:27.759Z,2.45
2022-08-08T03:09:04.713Z,2.50
2022-08-08T03:12:02.490Z,2.85
2022-08-08T03:16:00.418Z,2.65
2022-08-08T03:17:42.841Z,2.58
2022-08-08T03:20:27.258Z,2.95
2022-08-08T03:22:56.922Z,2.30
2022-08-08T03:25:35.656Z,2.53
2022-08-08T03:28:21.589Z,2.00
2022-08-08T03:31:22.280Z,2.20
2022-08-08T03:33:58.312Z,2.50
2022-08-08T03:36:30.444Z,2.58
2022-08-08T03:39:14.361Z,2.50
2022-08-08T03:44:38.686Z,2.58
2022-08-08T03:47:20.245Z,2.63
2022-08-08T03:50:00.588Z,2.28
2022-08-08T03:52:45.314Z,2.15
2022-08-08T03:55:20.113Z,2.55
2022-08-08T03:58:34.998Z,2.92
2022-08-08T04:01:20.765Z,2.80
2022-08-08T04:03:59.210Z,2.53
2022-08-08T04:06:39.031Z,2.78
2022-08-08T04:09:11.323Z,3.10
2022-08-08T04:11:58.015Z,2.65
2022-08-08T04:14:34.492Z,2.30
2022-08-08T04:17:04.348Z,2.38
2022-08-08T04:19:36.714Z,2.53
2022-08-08T04:22:05.078Z,2.60
2022-08-08T04:24:37.766Z,2.78
2022-08-08T04:27:10.533Z,2.67
2022-08-08T04:30:00.801Z,2.85
2022-08-08T04:32:36.121Z,2.80
2022-08-08T04:35:08.730Z,3.30
2022-08-08T04:37:42.387Z,2.40
2022-08-08T04:40:15.921Z,2.90
2022-08-08T04:42:57.349Z,3.10
2022-08-08T04:45:35.356Z,2.60
2022-08-08T04:48:05.357Z,2.70
2022-08-08T04:50:44.680Z,2.88
2022-08-08T04:54:36.273Z,3.22
2022-08-08T04:56:07.381Z,2.47
2022-08-08T04:58:38.873Z,2.92
2022-08-08T05:01:10.753Z,3.30
2022-08-08T05:04:09.078Z,2.90
2022-08-08T05:06:39.456Z,2.35
2022-08-08T05:09:08.305Z,2.70
2022-08-08T05:11:40.794Z,2.72
2022-08-08T05:14:12.896Z,3.40
2022-08-08T05:16:50.862Z,2.40
2022-08-08T05:20:10.416Z,3.05
2022-08-08T05:22:13.707Z,2.83
2022-08-08T05:24:48.148Z,3.08
2022-08-08T05:27:19.922Z,3.15
2022-08-08T05:29:51.858Z,3.78
2022-08-08T05:32:24.803Z,3.15
2022-08-08T05:35:04.484Z,3.05
2022-08-08T05:37:53.110Z,3.25
2022-08-08T05:40:33.894Z,2.65
2022-08-08T05:43:38.309Z,3.42
2022-08-08T05:46:09.990Z,3.38
2022-08-08T05:48:52.267Z,3.13
2022-08-08T05:51:22.998Z,3.10
2022-08-08T05:54:26.956Z,3.13
2022-08-08T05:56:47.391Z,3.30
2022-08-08T05:59:58.682Z,3.20
2022-08-08T06:02:53.545Z,3.10
2022-08-08T06:05:35.642Z,3.63
2022-08-08T06:08:33.416Z,3.42
2022-08-08T06:11:05.078Z,3.30
2022-08-08T06:13:36.356Z,3.15
2022-08-08T06:19:04.952Z,2.90
2022-08-08T06:21:51.499Z,3.30
2022-08-08T06:24:31.010Z,3.33
2022-08-08T06:27:05.772Z,3.63
2022-08-08T06:29:59.347Z,3.15
2022-08-08T06:33:01.199Z,3.50
2022-08-08T06:36:04.704Z,3.60
2022-08-08T06:38:27.544Z,4.18
2022-08-08T06:41:04.930Z,3.95
2022-08-08T06:43:39.977Z,2.90
2022-08-08T06:46:17.145Z,3.50
2022-08-08T06:48:51.108Z,2.97
2022-08-08T06:51:22.325Z,3.17
2022-08-08T06:54:03.127Z,3.00
2022-08-08T06:56:35.840Z,2.67
2022-08-08T06:59:09.907Z,2.58
2022-08-08T07:02:26.988Z,4.15
2022-08-08T07:04:54.729Z,3.33
2022-08-08T07:08:00.995Z,3.35
2022-08-08T07:10:47.852Z,2.80
2022-08-08T07:13:25.135Z,2.97
2022-08-08T07:16:10.551Z,2.67
2022-08-08T07:19:06.480Z,2.20
2022-08-08T07:22:00.650Z,2.28
2022-08-08T07:24:50.287Z,2.85
2022-08-08T07:27:35.039Z,2.63
2022-08-08T07:30:21.345Z,3.03
2022-08-08T07:32:59.641Z,3.28
2022-08-08T07:35:30.979Z,3.58
2022-08-08T07:38:09.704Z,2.53
2022-08-08T07:40:50.661Z,2.22
2022-08-08T07:43:23.231Z,2.33
2022-08-08T07:46:23.156Z,2.22
2022-08-08T07:48:54.464Z,2.15
2022-08-08T07:51:45.186Z,1.75
2022-08-08T07:54:51.869Z,2.05
2022-08-08T07:57:27.694Z,3.08
2022-08-08T08:00:17.200Z,3.35
2022-08-08T08:03:11.054Z,2.35
2022-08-08T08:05:50.670Z,3.00
2022-08-08T08:08:29.214Z,2.88
2022-08-08T08:10:57.945Z,3.13
2022-08-08T08:13:43.171Z,2.53
2022-08-08T08:16:26.380Z,2.42
2022-08-08T08:19:08.422Z,2.47
2022-08-08T08:21:58.059Z,2.60
2022-08-08T08:24:46.451Z,2.33
2022-08-08T08:27:17.734Z,2.00
2022-08-08T08:29:50.996Z,2.20
2022-08-08T08:32:31.476Z,2.22
2022-08-08T08:35:06.492Z,2.65
2022-08-08T08:37:47.925Z,1.80
2022-08-08T08:40:24.422Z,2.97
2022-08-08T08:42:54.824Z,2.40
2022-08-08T08:45:26.388Z,3.05
2022-08-08T08:48:00.875Z,2.38
2022-08-08T08:50:35.416Z,2.38
2022-08-08T08:53:27.548Z,2.92
2022-08-08T08:56:09.412Z,2.33
2022-08-08T08:58:50.547Z,2.97
2022-08-08T09:01:33.388Z,2.67
2022-08-08T09:04:31.147Z,3.17
2022-08-08T09:07:12.854Z,2.05
2022-08-08T09:09:57.378Z,2.20
2022-08-08T09:12:35.823Z,2.85
2022-08-08T09:15:06.264Z,2.38
2022-08-08T09:17:42.045Z,2.00
2022-08-08T09:22:00.535Z,2.78
2022-08-08T09:23:17.590Z,2.13
2022-08-08T09:26:16.911Z,1.85
2022-08-08T09:28:45.218Z,2.15
2022-08-08T09:31:42.781Z,1.92
2022-08-08T09:34:32.770Z,2.40
2022-08-08T09:37:34.193Z,1.95
2022-08-08T09:40:10.876Z,2.50
2022-08-08T09:42:51.705Z,2.67
2022-08-08T09:46:01.699Z,2.28
2022-08-08T09:48:28.990Z,2.05
2022-08-08T09:51:05.248Z,1.95
2022-08-08T09:53:59.136Z,2.00
2022-08-08T09:56:40.865Z,2.08
2022-08-08T09:59:40.442Z,1.90
2022-08-08T10:02:12.982Z,1.90
2022-08-08T10:04:47.953Z,1.80
2022-08-08T10:07:16.877Z,2.33
2022-08-08T10:09:59.836Z,2.25
2022-08-08T10:12:53.734Z,2.00
2022-08-08T10:15:27.485Z,1.67
2022-08-08T10:18:10.167Z,1.63
2022-08-08T10:20:58.193Z,2.00
2022-08-08T10:23:44.078Z,2.22
2022-08-08T10:26:25.966Z,1.98
2022-08-08T10:29:07.732Z,1.90
2022-08-08T10:31:58.973Z,2.47
2022-08-08T10:34:28.820Z,2.13
2022-08-08T10:36:59.798Z,2.47
2022-08-08T10:39:31.670Z,2.20
2022-08-08T10:42:16.308Z,1.85
2022-08-08T10:44:45.809Z,1.73
2022-08-08T10:50:01.988Z,1.33
2022-08-08T10:52:32.279Z,1.42
2022-08-08T10:55:06.064Z,1.80
2022-08-08T10:57:50.571Z,1.88
2022-08-08T11:00:26.007Z,1.80
2022-08-08T11:02:58.243Z,2.00
2022-08-08T11:05:38.912Z,1.45
2022-08-08T11:08:31.567Z,1.55
2022-08-08T11:11:02.484Z,1.50
2022-08-08T11:13:59.839Z,2.53
2022-08-08T11:16:34.339Z,1.90
2022-08-08T11:19:03.733Z,1.50
2022-08-08T11:21:41.251Z,2.00
2022-08-08T11:24:11.280Z,2.13
2022-08-08T11:26:56.317Z,2.00
2022-08-08T11:29:41.893Z,1.38
2022-08-08T11:32:14.927Z,1.40
2022-08-08T11:38:35.978Z,2.33
2022-08-08T11:40:25.849Z,1.88
2022-08-08T11:42:55.725Z,1.27
2022-08-08T11:45:23.232Z,1.48
2022-08-08T11:48:02.400Z,1.75
2022-08-08T11:50:33.913Z,1.50
2022-08-08T11:53:06.141Z,1.50
2022-08-08T11:55:46.644Z,1.52
2022-08-08T11:58:15.756Z,1.67
2022-08-08T12:00:48.460Z,1.70
2022-08-08T12:03:30.696Z,1.70
2022-08-08T12:06:11.178Z,1.15
2022-08-08T12:11:22.974Z,1.63
2022-08-08T12:14:04.909Z,1.42
2022-08-08T12:16:43.412Z,1.58
2022-08-08T12:19:14.590Z,1.23
2022-08-08T12:21:59.800Z,2.00
2022-08-08T12:24:29.995Z,1.30
2022-08-08T12:26:58.620Z,1.40
2022-08-08T12:29:40.971Z,1.00
2022-08-08T12:32:17.248Z,1.00
2022-08-08T12:35:01.414Z,1.30
2022-08-08T12:37:40.055Z,1.45
2022-08-08T12:40:23.066Z,1.17
2022-08-08T12:42:53.036Z,1.38
2022-08-08T12:45:59.517Z,1.10
2022-08-08T12:48:36.971Z,1.25
2022-08-08T12:51:07.838Z,1.35
2022-08-08T12:54:24.550Z,1.20
2022-08-08T12:56:53.580Z,0.80
2022-08-08T12:59:24.204Z,1.15
2022-08-08T13:02:06.619Z,0.98
2022-08-08T13:04:34.229Z,1.63
2022-08-08T13:07:06.836Z,0.98
2022-08-08T13:10:10.817Z,0.80
2022-08-08T13:12:36.048Z,1.20
2022-08-08T13:15:10.837Z,1.23
2022-08-08T13:18:09.045Z,1.00
2022-08-08T13:20:27.614Z,1.48
2022-08-08T13:23:30.002Z,0.90
2022-08-08T13:25:44.284Z,1.35
2022-08-08T13:28:27.853Z,0.70
2022-08-08T13:30:56.982Z,0.88
2022-08-08T13:33:25.328Z,1.25
2022-08-08T13:35:56.070Z,1.20
2022-08-08T13:38:24.103Z,1.00
2022-08-08T13:40:55.523Z,1.02
2022-08-08T13:43:23.461Z,0.88
2022-08-08T13:45:53.730Z,0.93
2022-08-08T13:48:25.744Z,0.95
2022-08-08T13:50:57.707Z,1.02
2022-08-08T13:53:59.708Z,1.02
2022-08-08T13:56:30.838Z,0.90
2022-08-08T13:58:58.415Z,0.95
2022-08-08T14:01:32.664Z,1.45
2022-08-08T14:04:21.525Z,0.70
2022-08-08T14:06:51.236Z,0.75
2022-08-08T14:09:29.244Z,0.85
2022-08-08T14:11:59.981Z,0.70
2022-08-08T14:14:41.793Z,0.77
2022-08-08T14:17:22.393Z,0.77
2022-08-08T14:20:06.821Z,0.75
2022-08-08T14:22:38.807Z,0.95
2022-08-08T14:25:17.600Z,1.05
2022-08-08T14:27:59.810Z,0.90
2022-08-08T14:30:34.636Z,0.70
2022-08-08T14:33:03.293Z,1.05
2022-08-08T14:35:41.718Z,1.25
2022-08-08T14:38:33.973Z,1.00
2022-08-08T14:41:09.501Z,0.85
2022-08-08T14:44:09.576Z,0.70
2022-08-08T14:46:35.921Z,1.02
2022-08-08T14:49:20.507Z,1.00
2022-08-08T14:52:13.871Z,0.90
2022-08-08T14:54:50.382Z,0.77
2022-08-08T14:58:06.134Z,0.80
2022-08-08T15:00:21.804Z,2.55
2022-08-08T15:03:14.212Z,3.97
2022-08-08T15:05:53.533Z,3.70
2022-08-08T15:08:34.186Z,3.22
2022-08-08T15:11:04.831Z,2.45
2022-08-08T15:14:00.549Z,3.00
2022-08-08T15:16:29.222Z,2.75
2022-08-08T15:19:06.904Z,2.78
2022-08-08T15:21:37.956Z,2.70
2022-08-08T15:24:16.001Z,2.70
2022-08-08T15:26:46.703Z,2.85
2022-08-08T15:29:24.619Z,2.67
2022-08-08T15:32:18.880Z,2.40
2022-08-08T15:34:41.222Z,2.90
2022-08-08T15:37:08.833Z,2.55
2022-08-08T15:39:40.713Z,2.03
2022-08-08T15:42:10.187Z,2.47
2022-08-08T15:44:38.380Z,3.10
2022-08-08T15:47:15.893Z,1.95
2022-08-08T15:49:48.587Z,2.03
2022-08-08T15:52:21.547Z,1.70
2022-08-08T15:54:51.819Z,2.15
2022-08-08T15:57:21.036Z,1.77
2022-08-08T16:00:06.617Z,1.73
2022-08-08T16:02:50.310Z,1.67
2022-08-08T16:05:23.614Z,1.98
2022-08-08T16:07:54.140Z,1.80
2022-08-08T16:13:13.953Z,1.65
2022-08-08T16:13:33.703Z,2.15
2022-08-08T16:16:17.391Z,2.20
2022-08-08T16:18:56.431Z,2.60
2022-08-08T16:21:27.733Z,2.00
2022-08-08T16:24:07.558Z,2.03
2022-08-08T16:29:16.415Z,2.50
2022-08-08T16:31:49.179Z,2.20
2022-08-08T16:34:21.279Z,2.20
2022-08-08T16:36:50.490Z,2.13
2022-08-08T16:40:01.000Z,2.08
2022-08-08T16:42:28.909Z,2.45
2022-08-08T16:44:59.491Z,2.42
2022-08-08T16:47:41.393Z,2.10
2022-08-08T16:50:13.776Z,2.50
2022-08-08T16:55:02.583Z,2.30
2022-08-08T16:55:53.338Z,1.92
2022-08-08T16:58:25.566Z,2.40
2022-08-08T17:00:59.018Z,2.53
2022-08-08T17:04:00.044Z,3.03
2022-08-08T17:13:17.306Z,3.25
2022-08-08T17:15:52.810Z,3.05
2022-08-08T17:18:26.890Z,3.10
2022-08-08T17:20:56.780Z,2.90
2022-08-08T17:24:00.439Z,3.10
2022-08-08T17:26:29.020Z,2.47
2022-08-08T17:28:58.560Z,2.80
2022-08-08T17:31:53.437Z,2.40
2022-08-08T17:34:48.250Z,1.50
2022-08-08T17:37:09.274Z,2.03
2022-08-08T17:40:10.549Z,2.25
2022-08-08T17:42:40.011Z,2.10
2022-08-08T17:45:14.214Z,2.60
2022-08-08T17:47:50.840Z,2.00
2022-08-08T17:50:21.327Z,1.85
2022-08-08T17:52:50.606Z,1.60
2022-08-08T17:56:08.190Z,1.80
2022-08-08T17:58:08.245Z,1.50
2022-08-08T18:00:41.094Z,2.13
2022-08-08T18:03:13.176Z,1.70
2022-08-08T18:05:47.960Z,1.27
2022-08-08T18:08:25.332Z,1.48
2022-08-08T18:11:17.311Z,1.90
2022-08-08T18:14:01.097Z,1.77
2022-08-08T18:16:41.291Z,2.13
2022-08-08T18:19:15.588Z,1.52
2022-08-08T18:22:00.900Z,1.50
2022-08-08T18:24:30.430Z,1.42
2022-08-08T18:27:06.274Z,1.33
2022-08-08T18:29:48.559Z,1.55
2022-08-08T18:32:19.215Z,1.38
2022-08-08T18:34:49.581Z,1.48
2022-08-08T18:37:17.727Z,1.55
2022-08-08T18:40:05.956Z,1.45
2022-08-08T18:42:37.397Z,2.13
2022-08-08T18:46:08.551Z,1.85
2022-08-08T18:47:59.722Z,1.23
2022-08-08T18:50:26.901Z,1.33
2022-08-08T18:52:54.211Z,1.67
2022-08-08T18:55:22.220Z,1.75
2022-08-08T18:57:55.091Z,1.33
2022-08-08T19:00:22.240Z,1.23
2022-08-08T19:03:06.007Z,1.38
2022-08-08T19:05:38.596Z,1.00
2022-08-08T19:08:25.737Z,1.73
2022-08-08T19:11:01.833Z,1.95
2022-08-08T19:13:53.150Z,1.48
2022-08-08T19:16:19.461Z,1.40
2022-08-08T19:19:00.279Z,1.00
2022-08-08T19:21:33.384Z,1.20
2022-08-08T19:24:33.984Z,1.33
2022-08-08T19:27:04.164Z,1.55
2022-08-08T19:29:31.481Z,1.40
2022-08-08T19:32:01.531Z,0.98
2022-08-08T19:34:35.491Z,1.67
2022-08-08T19:37:06.146Z,1.65
2022-08-08T19:39:35.786Z,1.83
2022-08-08T19:42:05.358Z,1.90
2022-08-08T19:44:45.439Z,1.50
2022-08-08T19:47:24.653Z,1.30
2022-08-08T19:49:59.625Z,1.40
2022-08-08T19:52:34.424Z,1.38
2022-08-08T19:55:12.563Z,1.17
2022-08-08T19:57:42.402Z,1.27
2022-08-08T20:00:29.966Z,1.42
2022-08-08T20:03:15.303Z,1.60
2022-08-08T20:06:14.185Z,1.17
2022-08-08T20:08:39.674Z,1.50
2022-08-08T20:11:09.867Z,1.25
2022-08-08T20:14:11.967Z,1.38
2022-08-08T20:16:29.534Z,1.52
2022-08-08T20:18:57.017Z,1.40
2022-08-08T20:21:25.684Z,1.10
2022-08-08T20:23:57.605Z,1.20
2022-08-08T20:26:33.702Z,1.48
2022-08-08T20:29:02.958Z,1.73
2022-08-08T20:32:02.725Z,1.40
2022-08-08T20:34:29.764Z,1.40
2022-08-08T20:37:03.267Z,1.80
2022-08-08T20:39:39.194Z,1.50
2022-08-08T20:42:28.573Z,1.73
2022-08-08T20:44:57.450Z,1.50
2022-08-08T20:47:26.083Z,1.75
2022-08-08T20:49:54.514Z,1.80
2022-08-08T20:52:27.630Z,1.50
2022-08-08T20:54:56.558Z,1.90
2022-08-08T20:57:26.900Z,2.03
2022-08-08T20:59:56.026Z,1.80
2022-08-08T21:02:26.171Z,1.80
2022-08-08T21:05:00.755Z,1.98
2022-08-08T21:07:47.923Z,2.40
2022-08-08T21:10:20.928Z,2.00
2022-08-08T21:12:54.052Z,2.10
2022-08-08T21:16:05.970Z,1.92
2022-08-08T21:18:11.907Z,2.55
2022-08-08T21:20:41.990Z,3.22
2022-08-08T21:23:12.920Z,2.00
2022-08-08T21:25:43.065Z,2.38
2022-08-08T21:28:14.986Z,2.17
2022-08-08T21:30:45.229Z,2.50
2022-08-08T21:33:17.100Z,2.85
2022-08-08T21:36:16.452Z,2.55
2022-08-08T21:38:31.466Z,2.28
2022-08-08T21:40:58.696Z,2.63
2022-08-08T21:43:33.023Z,2.67
2022-08-08T21:48:04.936Z,2.30
2022-08-08T21:48:54.495Z,2.75
2022-08-08T21:54:18.014Z,3.05
2022-08-08T21:54:36.542Z,2.80
2022-08-08T21:57:00.895Z,2.50
2022-08-08T22:00:03.142Z,3.22
2022-08-08T22:02:19.646Z,2.25
2022-08-08T22:04:58.720Z,2.13
2022-08-08T22:07:39.910Z,2.15
2022-08-08T22:10:28.750Z,1.90
2022-08-08T22:13:17.182Z,2.63
2022-08-08T22:15:59.320Z,2.42
2022-08-08T22:18:34.019Z,2.35
2022-08-08T22:21:14.713Z,2.53
2022-08-08T22:23:51.602Z,2.90
2022-08-08T22:26:28.987Z,2.80
2022-08-08T22:29:13.667Z,2.70
2022-08-08T22:32:01.408Z,3.80
2022-08-08T22:34:33.010Z,3.17
2022-08-08T22:37:06.314Z,3.00
2022-08-08T22:39:51.269Z,2.75
2022-08-08T22:42:31.975Z,2.60
2022-08-08T22:45:12.908Z,2.70
2022-08-08T22:47:46.863Z,3.00
2022-08-08T22:50:25.787Z,2.45
2022-08-08T22:54:19.534Z,1.90
2022-08-08T22:55:56.042Z,3.22
2022-08-08T22:58:28.720Z,2.40
2022-08-08T23:00:59.811Z,2.08
2022-08-08T23:03:52.605Z,1.92
2022-08-08T23:06:17.069Z,2.00
2022-08-08T23:08:55.612Z,2.33
2022-08-08T23:11:30.916Z,2.20
2022-08-08T23:14:21.448Z,2.25
2022-08-08T23:16:54.827Z,3.17
2022-08-08T23:19:30.892Z,2.90
2022-08-08T23:22:04.500Z,2.90
2022-08-08T23:24:36.030Z,2.50
2022-08-08T23:27:06.029Z,2.70
2022-08-08T23:29:36.862Z,2.97
2022-08-08T23:32:06.312Z,3.40
2022-08-08T23:34:38.377Z,2.55
2022-08-08T23:37:07.288Z,3.05
2022-08-08T23:39:41.803Z,2.40
2022-08-08T23:42:16.517Z,2.60
2022-08-08T23:44:45.206Z,3.03
2022-08-08T23:49:06.936Z,2.53
2022-08-08T23:50:03.367Z,2.95
2022-08-08T23:52:33.639Z,2.20
2022-08-08T23:55:13.905Z,2.47
2022-08-08T23:57:52.087Z,2.67
